aviador You're here:

YBHM Decoded Metar

HAMILTON ISLAND in AUSTRALIA
Report Time2017-06-24 01:00:00
UTC Time2017-06-24 01:43:43
Flight Rules vfr VFR
Wind150° at 18 kt
W.Decomp.*RWY 14: 18.0 kt HW 0.6 kt RCW
W.Rank150° ranks 3
Current wind is above 150° avg. (16.2)
Visibility9999 m
Phenomena:N/A
Clouds:Overcast 050 Hf
Expected CloudBase > 1,200 ft AGL from Temp-Dew spread
Ceiling5,000 ft
Temp21°C (ISA +6)
Dew Point18°C (83% RH)
AAT17.3°C
QNH1018 hPa
Density Alt823 ft
Elevation16 ft
Report Wrong Elevation
Raw Report
YBHM 240100Z AUTO 15018KT 9999 // OVC050 21/18 Q1018=

Extra information for YBHM:More info

Metar Taf Metar & Taf Last 4 Metars F.Rules Stats Wind Profile Meteogram Temp Stats Airport Information Weather charts Add Link Nearby VenuesMetar ALERT Operation Metar Decoded Social comments